sensor_id;sensor_type;location;lat;lon;timestamp;P1;durP1;ratioP1;P2;durP2;ratioP2
7523;SDS011;3803;51.666;7.630;2023-06-26T00:00:11;14.03;;;11.67;;
7523;SDS011;3803;51.666;7.630;2023-06-26T00:00:32;13.45;;;11.43;;
7523;SDS011;3803;51.666;7.630;2023-06-26T00:00:53;14.00;;;11.30;;
7523;SDS011;3803;51.666;7.630;2023-06-26T00:01:13;13.98;;;11.18;;
7523;SDS011;3803;51.666;7.630;2023-06-26T00:01:34;13.40;;;11.05;;
7523;SDS011;3803;51.666;7.630;2023-06-26T00:02:26;12.70;;;11.10;;
7523;SDS011;3803;51.666;7.630;2023-06-26T00:02:46;14.60;;;11.40;;
7523;SDS011;3803;51.666;7.630;2023-06-26T00:03:07;13.77;;;11.15;;
7523;SDS011;3803;51.666;7.630;2023-06-26T00:03:28;13.43;;;10.90;;
7523;SDS011;3803;51.666;7.630;2023-06-26T00:03:49;11.65;;;10.45;;
7523;SDS011;3803;51.666;7.630;2023-06-26T00:04:09;12.73;;;10.97;;
7523;SDS011;3803;51.666;7.630;2023-06-26T00:04:34;13.88;;;10.90;;
7523;SDS011;3803;51.666;7.630;2023-06-26T00:04:57;13.85;;;10.95;;
7523;SDS011;3803;51.666;7.630;2023-06-26T00:05:18;12.35;;;10.38;;
7523;SDS011;3803;51.666;7.630;2023-06-26T00:05:38;12.02;;;10.60;;
7523;SDS011;3803;51.666;7.630;2023-06-26T00:05:59;12.95;;;11.20;;
7523;SDS011;3803;51.666;7.630;2023-06-26T00:06:21;14.13;;;12.05;;
7523;SDS011;3803;51.666;7.630;2023-06-26T00:06:44;13.73;;;12.00;;
7523;SDS011;3803;51.666;7.630;2023-06-26T00:07:05;12.85;;;11.38;;
7523;SDS011;3803;51.666;7.630;2023-06-26T00:07:26;11.98;;;10.43;;
7523;SDS011;3803;51.666;7.630;2023-06-26T00:07:46;11.93;;;10.10;;
7523;SDS011;3803;51.666;7.630;2023-06-26T00:08:07;11.93;;;10.50;;
7523;SDS011;3803;51.666;7.630;2023-06-26T00:08:28;12.80;;;11.20;;
7523;SDS011;3803;51.666;7.630;2023-06-26T00:08:49;13.73;;;11.60;;
7523;SDS011;3803;51.666;7.630;2023-06-26T00:09:10;13.57;;;11.10;;
7523;SDS011;3803;51.666;7.630;2023-06-26T00:09:32;13.65;;;11.25;;
7523;SDS011;3803;51.666;7.630;2023-06-26T00:09:53;12.70;;;10.80;;
7523;SDS011;3803;51.666;7.630;2023-06-26T00:10:14;13.02;;;11.57;;
7523;SDS011;3803;51.666;7.630;2023-06-26T00:10:34;13.43;;;11.30;;
7523;SDS011;3803;51.666;7.630;2023-06-26T00:10:55;13.93;;;11.18;;
7523;SDS011;3803;51.666;7.630;2023-06-26T00:11:16;14.30;;;11.27;;
7523;SDS011;3803;51.666;7.630;2023-06-26T00:11:37;13.07;;;11.20;;
7523;SDS011;3803;51.666;7.630;2023-06-26T00:11:58;12.75;;;11.30;;
7523;SDS011;3803;51.666;7.630;2023-06-26T00:12:19;12.30;;;10.82;;
7523;SDS011;3803;51.666;7.630;2023-06-26T00:12:40;12.27;;;10.90;;
7523;SDS011;3803;51.666;7.630;2023-06-26T00:13:00;12.87;;;11.23;;
7523;SDS011;3803;51.666;7.630;2023-06-26T00:13:23;13.20;;;11.80;;
7523;SDS011;3803;51.666;7.630;2023-06-26T00:13:44;13.70;;;12.00;;
7523;SDS011;3803;51.666;7.630;2023-06-26T00:14:04;13.70;;;12.10;;
7523;SDS011;3803;51.666;7.630;2023-06-26T00:14:25;14.00;;;12.10;;
7523;SDS011;3803;51.666;7.630;2023-06-26T00:14:46;13.82;;;11.90;;
7523;SDS011;3803;51.666;7.630;2023-06-26T00:15:06;13.00;;;11.60;;
7523;SDS011;3803;51.666;7.630;2023-06-26T00:15:28;13.63;;;11.90;;
7523;SDS011;3803;51.666;7.630;2023-06-26T00:15:51;14.32;;;12.40;;
7523;SDS011;3803;51.666;7.630;2023-06-26T00:16:12;13.90;;;11.77;;
7523;SDS011;3803;51.666;7.630;2023-06-26T00:16:32;13.00;;;11.50;;
7523;SDS011;3803;51.666;7.630;2023-06-26T00:16:53;12.55;;;11.13;;
7523;SDS011;3803;51.666;7.630;2023-06-26T00:17:14;13.18;;;11.50;;
7523;SDS011;3803;51.666;7.630;2023-06-26T00:17:35;13.02;;;11.48;;
7523;SDS011;3803;51.666;7.630;2023-06-26T00:18:00;13.40;;;11.02;;
7523;SDS011;3803;51.666;7.630;2023-06-26T00:18:20;13.18;;;10.95;;
7523;SDS011;3803;51.666;7.630;2023-06-26T00:18:41;13.10;;;10.80;;
7523;SDS011;3803;51.666;7.630;2023-06-26T00:19:02;12.80;;;11.07;;
7523;SDS011;3803;51.666;7.630;2023-06-26T00:19:22;12.97;;;10.90;;
7523;SDS011;3803;51.666;7.630;2023-06-26T00:19:43;12.70;;;10.90;;
7523;SDS011;3803;51.666;7.630;2023-06-26T00:20:03;14.40;;;11.37;;
7523;SDS011;3803;51.666;7.630;2023-06-26T00:20:26;14.10;;;11.00;;
7523;SDS011;3803;51.666;7.630;2023-06-26T00:20:47;14.87;;;10.90;;
7523;SDS011;3803;51.666;7.630;2023-06-26T00:21:08;13.18;;;10.77;;
7523;SDS011;3803;51.666;7.630;2023-06-26T00:21:29;13.25;;;11.02;;
7523;SDS011;3803;51.666;7.630;2023-06-26T00:21:49;12.57;;;10.90;;
7523;SDS011;3803;51.666;7.630;2023-06-26T00:22:10;12.18;;;10.88;;
7523;SDS011;3803;51.666;7.630;2023-06-26T00:22:31;12.70;;;11.30;;
7523;SDS011;3803;51.666;7.630;2023-06-26T00:22:52;12.98;;;11.57;;
7523;SDS011;3803;51.666;7.630;2023-06-26T00:23:15;12.77;;;11.25;;
7523;SDS011;3803;51.666;7.630;2023-06-26T00:23:37;11.95;;;10.65;;
7523;SDS011;3803;51.666;7.630;2023-06-26T00:23:58;12.10;;;10.80;;
7523;SDS011;3803;51.666;7.630;2023-06-26T00:24:19;12.60;;;11.00;;
7523;SDS011;3803;51.666;7.630;2023-06-26T00:24:54;13.83;;;11.10;;
7523;SDS011;3803;51.666;7.630;2023-06-26T00:25:15;14.32;;;11.90;;
7523;SDS011;3803;51.666;7.630;2023-06-26T00:25:36;14.07;;;12.13;;
7523;SDS011;3803;51.666;7.630;2023-06-26T00:25:56;13.00;;;11.43;;
7523;SDS011;3803;51.666;7.630;2023-06-26T00:26:17;12.48;;;11.18;;
7523;SDS011;3803;51.666;7.630;2023-06-26T00:26:38;12.50;;;11.00;;
7523;SDS011;3803;51.666;7.630;2023-06-26T00:26:58;12.90;;;11.60;;
7523;SDS011;3803;51.666;7.630;2023-06-26T00:27:20;13.10;;;11.70;;
7523;SDS011;3803;51.666;7.630;2023-06-26T00:27:40;13.73;;;11.90;;
7523;SDS011;3803;51.666;7.630;2023-06-26T00:28:01;15.80;;;11.80;;
7523;SDS011;3803;51.666;7.630;2023-06-26T00:28:22;15.90;;;11.55;;
7523;SDS011;3803;51.666;7.630;2023-06-26T00:28:42;15.23;;;11.30;;
7523;SDS011;3803;51.666;7.630;2023-06-26T00:29:03;13.45;;;11.45;;
7523;SDS011;3803;51.666;7.630;2023-06-26T00:29:24;14.10;;;11.75;;
7523;SDS011;3803;51.666;7.630;2023-06-26T00:29:45;13.95;;;11.50;;
7523;SDS011;3803;51.666;7.630;2023-06-26T00:30:05;14.07;;;11.53;;
7523;SDS011;3803;51.666;7.630;2023-06-26T00:30:26;13.40;;;11.27;;
7523;SDS011;3803;51.666;7.630;2023-06-26T00:30:47;14.43;;;11.70;;
7523;SDS011;3803;51.666;7.630;2023-06-26T00:31:07;14.43;;;11.70;;
7523;SDS011;3803;51.666;7.630;2023-06-26T00:31:28;14.83;;;11.70;;
7523;SDS011;3803;51.666;7.630;2023-06-26T00:31:48;13.77;;;11.40;;
7523;SDS011;3803;51.666;7.630;2023-06-26T00:32:09;13.00;;;10.83;;
7523;SDS011;3803;51.666;7.630;2023-06-26T00:32:30;12.57;;;11.18;;
7523;SDS011;3803;51.666;7.630;2023-06-26T00:32:50;12.43;;;11.13;;
7523;SDS011;3803;51.666;7.630;2023-06-26T00:33:11;13.10;;;11.60;;
7523;SDS011;3803;51.666;7.630;2023-06-26T00:33:32;13.30;;;11.60;;
7523;SDS011;3803;51.666;7.630;2023-06-26T00:33:52;13.80;;;11.57;;
7523;SDS011;3803;51.666;7.630;2023-06-26T00:34:13;13.07;;;11.13;;
7523;SDS011;3803;51.666;7.630;2023-06-26T00:34:35;12.88;;;11.20;;
7523;SDS011;3803;51.666;7.630;2023-06-26T00:34:55;12.80;;;11.10;;
7523;SDS011;3803;51.666;7.630;2023-06-26T00:35:16;12.57;;;10.88;;
7523;SDS011;3803;51.666;7.630;2023-06-26T00:35:38;13.52;;;10.38;;
7523;SDS011;3803;51.666;7.630;2023-06-26T00:35:59;13.57;;;10.50;;
7523;SDS011;3803;51.666;7.630;2023-06-26T00:36:20;13.95;;;11.20;;
7523;SDS011;3803;51.666;7.630;2023-06-26T00:36:42;13.55;;;11.20;;
7523;SDS011;3803;51.666;7.630;2023-06-26T00:37:03;13.00;;;10.90;;
7523;SDS011;3803;51.666;7.630;2023-06-26T00:37:25;11.75;;;10.43;;
7523;SDS011;3803;51.666;7.630;2023-06-26T00:37:46;11.80;;;10.50;;
7523;SDS011;3803;51.666;7.630;2023-06-26T00:38:06;12.67;;;11.10;;
7523;SDS011;3803;51.666;7.630;2023-06-26T00:38:27;13.60;;;11.73;;
7523;SDS011;3803;51.666;7.630;2023-06-26T00:38:48;13.90;;;11.80;;
7523;SDS011;3803;51.666;7.630;2023-06-26T00:39:09;14.52;;;11.13;;
7523;SDS011;3803;51.666;7.630;2023-06-26T00:39:30;14.00;;;11.15;;
7523;SDS011;3803;51.666;7.630;2023-06-26T00:39:51;14.68;;;11.27;;
7523;SDS011;3803;51.666;7.630;2023-06-26T00:40:12;15.35;;;12.00;;
7523;SDS011;3803;51.666;7.630;2023-06-26T00:40:33;16.25;;;11.85;;
7523;SDS011;3803;51.666;7.630;2023-06-26T00:40:53;15.13;;;11.70;;
7523;SDS011;3803;51.666;7.630;2023-06-26T00:41:15;13.15;;;11.10;;
7523;SDS011;3803;51.666;7.630;2023-06-26T00:41:36;12.48;;;11.10;;
7523;SDS011;3803;51.666;7.630;2023-06-26T00:41:57;12.40;;;11.05;;
7523;SDS011;3803;51.666;7.630;2023-06-26T00:42:18;13.13;;;10.93;;
7523;SDS011;3803;51.666;7.630;2023-06-26T00:42:39;14.45;;;10.95;;
7523;SDS011;3803;51.666;7.630;2023-06-26T00:42:59;14.65;;;10.73;;
7523;SDS011;3803;51.666;7.630;2023-06-26T00:43:20;15.33;;;11.17;;
7523;SDS011;3803;51.666;7.630;2023-06-26T00:43:42;14.10;;;11.27;;
7523;SDS011;3803;51.666;7.630;2023-06-26T00:44:04;14.57;;;11.27;;
7523;SDS011;3803;51.666;7.630;2023-06-26T00:45:10;16.30;;;11.60;;
7523;SDS011;3803;51.666;7.630;2023-06-26T00:45:31;15.57;;;11.30;;
7523;SDS011;3803;51.666;7.630;2023-06-26T00:45:52;13.40;;;10.88;;
7523;SDS011;3803;51.666;7.630;2023-06-26T00:46:14;11.63;;;10.43;;
7523;SDS011;3803;51.666;7.630;2023-06-26T00:46:35;12.40;;;11.10;;
7523;SDS011;3803;51.666;7.630;2023-06-26T00:46:56;13.38;;;11.30;;
7523;SDS011;3803;51.666;7.630;2023-06-26T00:47:17;13.30;;;11.40;;
7523;SDS011;3803;51.666;7.630;2023-06-26T00:47:38;12.93;;;11.05;;
7523;SDS011;3803;51.666;7.630;2023-06-26T00:48:00;12.07;;;10.77;;
7523;SDS011;3803;51.666;7.630;2023-06-26T00:48:22;12.80;;;11.13;;
7523;SDS011;3803;51.666;7.630;2023-06-26T00:48:45;14.38;;;11.50;;
7523;SDS011;3803;51.666;7.630;2023-06-26T00:49:08;14.50;;;11.70;;
7523;SDS011;3803;51.666;7.630;2023-06-26T00:49:28;13.83;;;11.43;;
7523;SDS011;3803;51.666;7.630;2023-06-26T00:49:49;12.60;;;11.20;;
7523;SDS011;3803;51.666;7.630;2023-06-26T00:50:11;13.43;;;11.40;;
7523;SDS011;3803;51.666;7.630;2023-06-26T00:50:31;14.43;;;11.80;;
7523;SDS011;3803;51.666;7.630;2023-06-26T00:50:52;14.40;;;11.80;;
7523;SDS011;3803;51.666;7.630;2023-06-26T00:51:13;14.25;;;11.88;;
7523;SDS011;3803;51.666;7.630;2023-06-26T00:51:34;14.00;;;11.90;;
7523;SDS011;3803;51.666;7.630;2023-06-26T00:51:55;14.98;;;12.05;;
7523;SDS011;3803;51.666;7.630;2023-06-26T00:52:16;16.02;;;11.77;;
7523;SDS011;3803;51.666;7.630;2023-06-26T00:52:38;16.67;;;11.90;;
7523;SDS011;3803;51.666;7.630;2023-06-26T00:52:59;14.80;;;11.60;;
7523;SDS011;3803;51.666;7.630;2023-06-26T00:53:21;12.98;;;11.52;;
7523;SDS011;3803;51.666;7.630;2023-06-26T00:53:42;12.25;;;10.95;;
7523;SDS011;3803;51.666;7.630;2023-06-26T00:54:04;13.07;;;11.00;;
7523;SDS011;3803;51.666;7.630;2023-06-26T00:54:25;13.30;;;10.93;;
7523;SDS011;3803;51.666;7.630;2023-06-26T00:54:46;12.98;;;10.82;;
7523;SDS011;3803;51.666;7.630;2023-06-26T00:55:08;12.80;;;11.20;;
7523;SDS011;3803;51.666;7.630;2023-06-26T00:55:30;12.30;;;11.00;;
7523;SDS011;3803;51.666;7.630;2023-06-26T00:55:51;12.60;;;11.00;;
7523;SDS011;3803;51.666;7.630;2023-06-26T00:56:11;12.90;;;11.00;;
7523;SDS011;3803;51.666;7.630;2023-06-26T00:56:32;13.27;;;10.90;;
7523;SDS011;3803;51.666;7.630;2023-06-26T00:56:53;12.98;;;10.73;;
7523;SDS011;3803;51.666;7.630;2023-06-26T00:57:14;14.65;;;11.38;;
7523;SDS011;3803;51.666;7.630;2023-06-26T00:57:34;15.00;;;11.60;;
7523;SDS011;3803;51.666;7.630;2023-06-26T00:57:55;14.30;;;11.40;;
7523;SDS011;3803;51.666;7.630;2023-06-26T00:58:16;13.55;;;10.50;;
7523;SDS011;3803;51.666;7.630;2023-06-26T00:58:36;13.40;;;10.30;;
7523;SDS011;3803;51.666;7.630;2023-06-26T00:58:57;13.33;;;10.60;;
7523;SDS011;3803;51.666;7.630;2023-06-26T00:59:20;13.15;;;11.48;;
7523;SDS011;3803;51.666;7.630;2023-06-26T00:59:42;13.13;;;11.52;;
7523;SDS011;3803;51.666;7.630;2023-06-26T01:00:03;13.20;;;11.70;;
7523;SDS011;3803;51.666;7.630;2023-06-26T01:00:24;12.10;;;10.70;;
7523;SDS011;3803;51.666;7.630;2023-06-26T01:00:50;12.70;;;10.70;;
7523;SDS011;3803;51.666;7.630;2023-06-26T01:01:13;11.88;;;10.30;;
7523;SDS011;3803;51.666;7.630;2023-06-26T01:01:37;11.45;;;10.25;;
7523;SDS011;3803;51.666;7.630;2023-06-26T01:01:58;12.30;;;11.00;;
7523;SDS011;3803;51.666;7.630;2023-06-26T01:02:19;12.98;;;11.60;;
7523;SDS011;3803;51.666;7.630;2023-06-26T01:02:40;12.75;;;11.25;;
7523;SDS011;3803;51.666;7.630;2023-06-26T01:03:01;12.30;;;10.90;;
7523;SDS011;3803;51.666;7.630;2023-06-26T01:03:23;12.05;;;10.27;;
7523;SDS011;3803;51.666;7.630;2023-06-26T01:03:44;15.30;;;10.68;;
7523;SDS011;3803;51.666;7.630;2023-06-26T01:04:06;14.82;;;10.40;;
7523;SDS011;3803;51.666;7.630;2023-06-26T01:04:26;11.95;;;10.43;;
7523;SDS011;3803;51.666;7.630;2023-06-26T01:04:48;12.07;;;10.50;;
7523;SDS011;3803;51.666;7.630;2023-06-26T01:05:10;12.85;;;11.05;;
7523;SDS011;3803;51.666;7.630;2023-06-26T01:05:32;14.05;;;11.20;;
7523;SDS011;3803;51.666;7.630;2023-06-26T01:05:53;14.70;;;11.27;;
7523;SDS011;3803;51.666;7.630;2023-06-26T01:06:16;14.68;;;11.15;;
7523;SDS011;3803;51.666;7.630;2023-06-26T01:06:38;12.70;;;10.77;;
7523;SDS011;3803;51.666;7.630;2023-06-26T01:06:59;12.20;;;10.90;;
7523;SDS011;3803;51.666;7.630;2023-06-26T01:07:22;12.10;;;10.80;;
7523;SDS011;3803;51.666;7.630;2023-06-26T01:07:43;12.80;;;11.13;;
7523;SDS011;3803;51.666;7.630;2023-06-26T01:08:04;13.02;;;10.90;;
7523;SDS011;3803;51.666;7.630;2023-06-26T01:08:25;12.35;;;10.43;;
7523;SDS011;3803;51.666;7.630;2023-06-26T01:08:47;11.73;;;9.73;;
7523;SDS011;3803;51.666;7.630;2023-06-26T01:09:09;12.15;;;10.30;;
7523;SDS011;3803;51.666;7.630;2023-06-26T01:09:42;13.18;;;11.23;;
7523;SDS011;3803;51.666;7.630;2023-06-26T01:10:03;13.95;;;11.63;;
7523;SDS011;3803;51.666;7.630;2023-06-26T01:10:25;13.75;;;11.80;;
7523;SDS011;3803;51.666;7.630;2023-06-26T01:10:48;13.40;;;12.00;;
7523;SDS011;3803;51.666;7.630;2023-06-26T01:11:09;14.13;;;11.95;;
7523;SDS011;3803;51.666;7.630;2023-06-26T01:11:30;14.20;;;11.82;;
7523;SDS011;3803;51.666;7.630;2023-06-26T01:11:52;13.77;;;11.48;;
7523;SDS011;3803;51.666;7.630;2023-06-26T01:12:13;12.98;;;11.48;;
7523;SDS011;3803;51.666;7.630;2023-06-26T01:12:34;13.93;;;11.10;;
7523;SDS011;3803;51.666;7.630;2023-06-26T01:12:56;13.20;;;10.50;;
7523;SDS011;3803;51.666;7.630;2023-06-26T01:13:18;12.63;;;10.53;;
7523;SDS011;3803;51.666;7.630;2023-06-26T01:13:39;12.30;;;11.00;;
7523;SDS011;3803;51.666;7.630;2023-06-26T01:14:02;13.00;;;11.13;;
7523;SDS011;3803;51.666;7.630;2023-06-26T01:14:23;12.85;;;10.75;;
7523;SDS011;3803;51.666;7.630;2023-06-26T01:14:44;12.68;;;10.63;;
7523;SDS011;3803;51.666;7.630;2023-06-26T01:15:05;12.30;;;10.90;;
7523;SDS011;3803;51.666;7.630;2023-06-26T01:15:27;12.20;;;10.90;;
7523;SDS011;3803;51.666;7.630;2023-06-26T01:15:47;12.10;;;10.60;;
7523;SDS011;3803;51.666;7.630;2023-06-26T01:16:09;12.20;;;10.60;;
7523;SDS011;3803;51.666;7.630;2023-06-26T01:16:30;12.23;;;10.65;;
7523;SDS011;3803;51.666;7.630;2023-06-26T01:16:52;13.15;;;10.68;;
7523;SDS011;3803;51.666;7.630;2023-06-26T01:17:17;13.25;;;10.80;;
7523;SDS011;3803;51.666;7.630;2023-06-26T01:17:39;13.02;;;10.70;;
7523;SDS011;3803;51.666;7.630;2023-06-26T01:18:00;12.73;;;10.63;;
7523;SDS011;3803;51.666;7.630;2023-06-26T01:18:23;12.23;;;10.38;;
7523;SDS011;3803;51.666;7.630;2023-06-26T01:18:46;12.15;;;10.65;;
7523;SDS011;3803;51.666;7.630;2023-06-26T01:19:10;12.30;;;11.00;;
7523;SDS011;3803;51.666;7.630;2023-06-26T01:19:35;11.90;;;10.70;;
7523;SDS011;3803;51.666;7.630;2023-06-26T01:19:55;12.02;;;10.82;;
7523;SDS011;3803;51.666;7.630;2023-06-26T01:20:16;13.03;;;11.40;;
7523;SDS011;3803;51.666;7.630;2023-06-26T01:20:39;12.52;;;10.88;;
7523;SDS011;3803;51.666;7.630;2023-06-26T01:21:02;12.93;;;10.48;;
7523;SDS011;3803;51.666;7.630;2023-06-26T01:21:25;13.00;;;10.82;;
7523;SDS011;3803;51.666;7.630;2023-06-26T01:21:55;13.10;;;11.00;;
7523;SDS011;3803;51.666;7.630;2023-06-26T01:22:28;11.50;;;10.00;;
7523;SDS011;3803;51.666;7.630;2023-06-26T01:24:16;12.27;;;10.60;;
7523;SDS011;3803;51.666;7.630;2023-06-26T01:24:54;12.25;;;10.40;;
7523;SDS011;3803;51.666;7.630;2023-06-26T01:26:14;12.98;;;10.60;;
7523;SDS011;3803;51.666;7.630;2023-06-26T01:26:35;14.43;;;10.50;;
7523;SDS011;3803;51.666;7.630;2023-06-26T01:26:57;13.68;;;10.10;;
7523;SDS011;3803;51.666;7.630;2023-06-26T01:27:21;11.45;;;10.00;;
7523;SDS011;3803;51.666;7.630;2023-06-26T01:27:47;13.00;;;9.95;;
7523;SDS011;3803;51.666;7.630;2023-06-26T01:28:10;14.82;;;10.45;;
7523;SDS011;3803;51.666;7.630;2023-06-26T01:28:34;15.52;;;10.80;;
7523;SDS011;3803;51.666;7.630;2023-06-26T01:28:58;14.27;;;10.88;;
7523;SDS011;3803;51.666;7.630;2023-06-26T01:29:20;13.25;;;10.90;;
7523;SDS011;3803;51.666;7.630;2023-06-26T01:29:43;13.10;;;11.00;;
7523;SDS011;3803;51.666;7.630;2023-06-26T01:30:06;12.85;;;10.95;;
7523;SDS011;3803;51.666;7.630;2023-06-26T01:30:29;12.70;;;10.93;;
7523;SDS011;3803;51.666;7.630;2023-06-26T01:30:51;13.60;;;10.95;;
7523;SDS011;3803;51.666;7.630;2023-06-26T01:31:12;14.52;;;11.15;;
7523;SDS011;3803;51.666;7.630;2023-06-26T01:31:34;13.70;;;10.50;;
7523;SDS011;3803;51.666;7.630;2023-06-26T01:31:56;11.48;;;10.02;;
7523;SDS011;3803;51.666;7.630;2023-06-26T01:32:17;12.10;;;9.60;;
7523;SDS011;3803;51.666;7.630;2023-06-26T01:32:39;13.57;;;9.90;;
7523;SDS011;3803;51.666;7.630;2023-06-26T01:33:00;14.50;;;10.27;;
7523;SDS011;3803;51.666;7.630;2023-06-26T01:33:21;14.65;;;10.52;;
7523;SDS011;3803;51.666;7.630;2023-06-26T01:33:45;14.65;;;10.75;;
7523;SDS011;3803;51.666;7.630;2023-06-26T01:34:07;15.32;;;11.07;;
7523;SDS011;3803;51.666;7.630;2023-06-26T01:34:28;14.35;;;11.23;;
7523;SDS011;3803;51.666;7.630;2023-06-26T01:34:49;15.00;;;11.07;;
7523;SDS011;3803;51.666;7.630;2023-06-26T01:35:12;13.60;;;10.73;;
7523;SDS011;3803;51.666;7.630;2023-06-26T01:35:34;11.88;;;10.32;;
7523;SDS011;3803;51.666;7.630;2023-06-26T01:35:59;11.43;;;10.20;;
7523;SDS011;3803;51.666;7.630;2023-06-26T01:36:22;11.20;;;10.00;;
7523;SDS011;3803;51.666;7.630;2023-06-26T01:36:44;11.80;;;10.55;;
7523;SDS011;3803;51.666;7.630;2023-06-26T01:37:06;13.40;;;10.90;;
7523;SDS011;3803;51.666;7.630;2023-06-26T01:37:27;13.90;;;10.90;;
7523;SDS011;3803;51.666;7.630;2023-06-26T01:37:48;13.07;;;10.20;;
7523;SDS011;3803;51.666;7.630;2023-06-26T01:38:33;13.30;;;10.07;;
7523;SDS011;3803;51.666;7.630;2023-06-26T01:38:54;13.93;;;10.45;;
7523;SDS011;3803;51.666;7.630;2023-06-26T01:39:18;13.05;;;10.50;;
7523;SDS011;3803;51.666;7.630;2023-06-26T01:39:39;13.23;;;10.55;;
7523;SDS011;3803;51.666;7.630;2023-06-26T01:39:59;13.05;;;10.52;;
7523;SDS011;3803;51.666;7.630;2023-06-26T01:40:20;11.10;;;9.80;;
7523;SDS011;3803;51.666;7.630;2023-06-26T01:40:41;11.07;;;9.80;;
7523;SDS011;3803;51.666;7.630;2023-06-26T01:41:02;12.13;;;10.47;;
7523;SDS011;3803;51.666;7.630;2023-06-26T01:41:23;13.00;;;11.00;;
7523;SDS011;3803;51.666;7.630;2023-06-26T01:41:44;13.60;;;11.30;;
7523;SDS011;3803;51.666;7.630;2023-06-26T01:42:06;12.80;;;10.75;;
7523;SDS011;3803;51.666;7.630;2023-06-26T01:42:28;14.35;;;10.20;;
7523;SDS011;3803;51.666;7.630;2023-06-26T01:42:48;14.07;;;9.50;;
7523;SDS011;3803;51.666;7.630;2023-06-26T01:43:15;14.50;;;10.10;;
7523;SDS011;3803;51.666;7.630;2023-06-26T01:44:03;11.70;;;10.43;;
7523;SDS011;3803;51.666;7.630;2023-06-26T01:44:39;13.50;;;10.60;;
7523;SDS011;3803;51.666;7.630;2023-06-26T01:45:19;14.20;;;10.88;;
7523;SDS011;3803;51.666;7.630;2023-06-26T01:45:48;15.07;;;11.00;;
7523;SDS011;3803;51.666;7.630;2023-06-26T01:46:16;14.23;;;10.90;;
7523;SDS011;3803;51.666;7.630;2023-06-26T01:47:01;12.57;;;10.70;;
7523;SDS011;3803;51.666;7.630;2023-06-26T01:47:24;12.38;;;10.48;;
7523;SDS011;3803;51.666;7.630;2023-06-26T01:47:49;11.65;;;9.90;;
7523;SDS011;3803;51.666;7.630;2023-06-26T01:48:12;11.55;;;10.05;;
7523;SDS011;3803;51.666;7.630;2023-06-26T01:49:28;12.95;;;10.15;;
7523;SDS011;3803;51.666;7.630;2023-06-26T01:49:57;14.07;;;10.77;;
7523;SDS011;3803;51.666;7.630;2023-06-26T01:50:24;13.30;;;10.65;;
7523;SDS011;3803;51.666;7.630;2023-06-26T01:50:48;12.52;;;10.10;;
7523;SDS011;3803;51.666;7.630;2023-06-26T01:51:13;12.50;;;9.93;;
7523;SDS011;3803;51.666;7.630;2023-06-26T01:51:41;12.48;;;10.38;;
7523;SDS011;3803;51.666;7.630;2023-06-26T01:52:22;11.73;;;10.02;;
7523;SDS011;3803;51.666;7.630;2023-06-26T01:53:29;12.50;;;10.32;;
7523;SDS011;3803;51.666;7.630;2023-06-26T01:53:56;12.40;;;9.50;;
7523;SDS011;3803;51.666;7.630;2023-06-26T01:54:18;12.32;;;9.40;;
7523;SDS011;3803;51.666;7.630;2023-06-26T01:54:46;12.98;;;9.80;;
7523;SDS011;3803;51.666;7.630;2023-06-26T01:55:31;12.30;;;10.23;;
7523;SDS011;3803;51.666;7.630;2023-06-26T01:56:00;11.90;;;10.00;;
7523;SDS011;3803;51.666;7.630;2023-06-26T01:56:28;12.18;;;10.55;;
7523;SDS011;3803;51.666;7.630;2023-06-26T01:56:50;12.27;;;10.50;;
7523;SDS011;3803;51.666;7.630;2023-06-26T01:57:15;12.63;;;10.60;;
7523;SDS011;3803;51.666;7.630;2023-06-26T01:57:39;12.82;;;10.30;;
7523;SDS011;3803;51.666;7.630;2023-06-26T01:58:00;13.70;;;10.50;;
7523;SDS011;3803;51.666;7.630;2023-06-26T01:58:22;12.48;;;10.35;;
7523;SDS011;3803;51.666;7.630;2023-06-26T01:58:45;12.20;;;10.02;;
7523;SDS011;3803;51.666;7.630;2023-06-26T01:59:07;11.60;;;9.90;;
7523;SDS011;3803;51.666;7.630;2023-06-26T01:59:30;11.52;;;9.82;;
7523;SDS011;3803;51.666;7.630;2023-06-26T01:59:54;11.82;;;10.15;;
7523;SDS011;3803;51.666;7.630;2023-06-26T02:00:17;11.98;;;10.30;;
7523;SDS011;3803;51.666;7.630;2023-06-26T02:00:40;12.75;;;10.90;;
7523;SDS011;3803;51.666;7.630;2023-06-26T02:01:01;12.73;;;10.85;;
7523;SDS011;3803;51.666;7.630;2023-06-26T02:01:22;12.27;;;10.63;;
7523;SDS011;3803;51.666;7.630;2023-06-26T02:01:43;11.20;;;9.95;;
7523;SDS011;3803;51.666;7.630;2023-06-26T02:02:06;11.60;;;9.80;;
7523;SDS011;3803;51.666;7.630;2023-06-26T02:02:30;12.05;;;9.95;;
7523;SDS011;3803;51.666;7.630;2023-06-26T02:02:52;11.48;;;10.00;;
7523;SDS011;3803;51.666;7.630;2023-06-26T02:03:12;11.50;;;9.98;;
7523;SDS011;3803;51.666;7.630;2023-06-26T02:03:33;11.27;;;9.60;;
7523;SDS011;3803;51.666;7.630;2023-06-26T02:03:54;12.10;;;9.70;;
7523;SDS011;3803;51.666;7.630;2023-06-26T02:04:14;12.60;;;9.90;;
7523;SDS011;3803;51.666;7.630;2023-06-26T02:04:35;13.63;;;10.30;;
7523;SDS011;3803;51.666;7.630;2023-06-26T02:04:56;14.40;;;10.80;;
7523;SDS011;3803;51.666;7.630;2023-06-26T02:05:17;13.98;;;10.57;;
7523;SDS011;3803;51.666;7.630;2023-06-26T02:05:38;13.15;;;10.60;;
7523;SDS011;3803;51.666;7.630;2023-06-26T02:05:58;11.73;;;10.07;;
7523;SDS011;3803;51.666;7.630;2023-06-26T02:06:21;11.68;;;10.30;;
7523;SDS011;3803;51.666;7.630;2023-06-26T02:06:41;11.63;;;9.85;;
7523;SDS011;3803;51.666;7.630;2023-06-26T02:07:02;11.80;;;9.77;;
7523;SDS011;3803;51.666;7.630;2023-06-26T02:07:25;11.82;;;9.70;;
7523;SDS011;3803;51.666;7.630;2023-06-26T02:07:46;12.07;;;10.17;;
7523;SDS011;3803;51.666;7.630;2023-06-26T02:08:08;11.07;;;9.75;;
7523;SDS011;3803;51.666;7.630;2023-06-26T02:08:29;11.82;;;10.02;;
7523;SDS011;3803;51.666;7.630;2023-06-26T02:08:51;11.80;;;10.05;;
7523;SDS011;3803;51.666;7.630;2023-06-26T02:09:11;12.65;;;10.20;;
7523;SDS011;3803;51.666;7.630;2023-06-26T02:09:32;13.27;;;10.17;;
7523;SDS011;3803;51.666;7.630;2023-06-26T02:09:53;12.80;;;9.43;;
7523;SDS011;3803;51.666;7.630;2023-06-26T02:10:13;12.70;;;9.40;;
7523;SDS011;3803;51.666;7.630;2023-06-26T02:10:34;13.43;;;9.80;;
7523;SDS011;3803;51.666;7.630;2023-06-26T02:10:55;13.75;;;10.40;;
7523;SDS011;3803;51.666;7.630;2023-06-26T02:11:15;14.80;;;10.82;;
7523;SDS011;3803;51.666;7.630;2023-06-26T02:11:36;14.00;;;10.98;;
7523;SDS011;3803;51.666;7.630;2023-06-26T02:11:57;14.10;;;11.00;;
7523;SDS011;3803;51.666;7.630;2023-06-26T02:12:18;14.30;;;10.80;;
7523;SDS011;3803;51.666;7.630;2023-06-26T02:12:38;12.95;;;10.23;;
7523;SDS011;3803;51.666;7.630;2023-06-26T02:13:00;11.95;;;9.90;;
7523;SDS011;3803;51.666;7.630;2023-06-26T02:13:21;11.25;;;9.52;;
7523;SDS011;3803;51.666;7.630;2023-06-26T02:13:42;12.20;;;9.90;;
7523;SDS011;3803;51.666;7.630;2023-06-26T02:14:02;12.45;;;9.85;;
7523;SDS011;3803;51.666;7.630;2023-06-26T02:14:23;12.00;;;9.90;;
7523;SDS011;3803;51.666;7.630;2023-06-26T02:14:44;10.93;;;9.40;;
7523;SDS011;3803;51.666;7.630;2023-06-26T02:15:05;10.90;;;9.17;;
7523;SDS011;3803;51.666;7.630;2023-06-26T02:15:27;10.90;;;9.30;;
7523;SDS011;3803;51.666;7.630;2023-06-26T02:15:48;11.50;;;9.53;;
7523;SDS011;3803;51.666;7.630;2023-06-26T02:16:09;12.20;;;9.60;;
7523;SDS011;3803;51.666;7.630;2023-06-26T02:16:29;12.70;;;9.85;;
7523;SDS011;3803;51.666;7.630;2023-06-26T02:16:50;12.70;;;9.93;;
7523;SDS011;3803;51.666;7.630;2023-06-26T02:17:11;11.77;;;9.90;;
7523;SDS011;3803;51.666;7.630;2023-06-26T02:17:31;11.25;;;9.50;;
7523;SDS011;3803;51.666;7.630;2023-06-26T02:17:52;10.70;;;9.30;;
7523;SDS011;3803;51.666;7.630;2023-06-26T02:18:12;10.60;;;9.20;;
7523;SDS011;3803;51.666;7.630;2023-06-26T02:18:33;11.70;;;9.52;;
7523;SDS011;3803;51.666;7.630;2023-06-26T02:18:54;13.03;;;10.23;;
7523;SDS011;3803;51.666;7.630;2023-06-26T02:19:17;13.73;;;10.60;;
7523;SDS011;3803;51.666;7.630;2023-06-26T02:19:41;13.15;;;10.30;;